Silva, Missouri
Current Conditions -  °F | °C
As of 5:53 AM on Friday 21 Nov 2014 (Local Time) from KPOF Reporting Station
Overcast Overcast  
Wind Chill: -3°   Ceiling: 3900
Heat Index:   Visibility: 10mi
Dew Point: -4°   Wind: 7mph
Humidity: 70%   Direction: 50°NE
Pressure: 30.35"   Gusts: NA
Location:  37.18°N, 90.46°W
Report Text: KPOF 211153Z AUTO 05006KT 10SM BKN039 OVC060 01/M04 A3035 RMK AO2 SLP283 T00061044 10039 21006 53007
Loading
Personal Weather Stations






























Interactive Weather Map New forecast layout! Learn more

10-Day Weather Forecast

Advertisements
Track Severe Weather on mobile